Terminal Aerodrome Forecast
Issued by NWS

Home | Current Version | Previous Version | Text Only | Print | Product List | Glossary On
Versions: 1 2 3 4 5 6 7 8 9 10 11 12 13 14 15 16 17
391
FTUS44 KTSA 241137
TAFRVS
TAF
KRVS 241137Z 2412/2512 17018G28KT P6SM VCSH OVC060
     FM241600 17018G27KT P6SM VCSH OVC040
     FM241800 17016G25KT P6SM VCTS OVC040CB
     FM242300 18014G24KT P6SM SCT050
     FM250300 24008KT P6SM VCTS BKN060CB=

USA.gov is the U.S. government's official web portal to all federal, state and local government web resources and services.